Time;durP1;ratioP1;P1;durP2;ratioP2;P2;SDS_P1;SDS_P2;PMS_P1;PMS_P2;Temp;Humidity;BMP_temperature;BMP_pressure;BME280_temperature;BME280_humidity;BME280_pressure;Samples;Min_cycle;Max_cycle;Signal;HPM_P1;HPM_P2
2023/07/31 00:23:42;;;;;;;19.80;5.45;;;16.50;99.90;;;;;;5542387;23;20256;-86
2023/07/31 00:26:08;;;;;;;23.33;5.72;;;16.50;99.90;;;;;;4940507;29;20015;-86
2023/07/31 00:28:33;;;;;;;17.88;4.85;;;16.50;99.90;;;;;;4936765;29;20062;-86
2023/07/31 00:30:59;;;;;;;23.73;6.82;;;16.50;99.90;;;;;;4937547;29;20026;-87
2023/07/31 00:33:25;;;;;;;29.85;6.00;;;16.50;99.90;;;;;;4930278;29;20392;-86
2023/07/31 00:35:50;;;;;;;17.90;4.82;;;16.50;99.90;;;;;;4941677;29;20078;-87
2023/07/31 00:38:16;;;;;;;28.80;5.20;;;16.50;99.90;;;;;;4943855;29;20075;-87
2023/07/31 00:40:42;;;;;;;20.17;4.40;;;16.50;99.90;;;;;;4940644;29;20027;-87
2023/07/31 00:43:07;;;;;;;13.13;3.40;;;16.50;99.90;;;;;;4934207;29;21075;-86
2023/07/31 00:45:33;;;;;;;19.95;3.85;;;16.50;99.90;;;;;;4940890;29;20030;-89
2023/07/31 00:47:59;;;;;;;17.27;4.10;;;16.50;99.90;;;;;;4931941;29;20424;-86
2023/07/31 00:50:25;;;;;;;21.58;4.45;;;16.50;99.90;;;;;;4943174;28;20124;-87
2023/07/31 00:52:51;;;;;;;18.05;4.80;;;16.50;99.90;;;;;;4943437;28;20028;-86
2023/07/31 00:55:17;;;;;;;20.77;3.92;;;16.50;99.90;;;;;;4935479;29;20028;-87
2023/07/31 00:57:45;;;;;;;21.60;4.10;;;16.50;99.90;;;;;;4940310;29;20058;-86
2023/07/31 01:00:11;;;;;;;25.05;5.35;;;16.60;99.90;;;;;;4941913;29;20019;-89
2023/07/31 01:02:37;;;;;;;13.30;3.70;;;16.60;99.90;;;;;;4936311;29;20070;-86
2023/07/31 01:05:04;;;;;;;22.20;4.68;;;16.50;99.90;;;;;;4934780;29;20388;-85
2023/07/31 01:08:03;;;;;;;16.88;4.40;;;16.60;99.90;;;;;;4948833;29;20023;-86
2023/07/31 01:10:35;;;;;;;17.55;5.30;;;16.50;99.90;;;;;;4950542;28;20126;-85
2023/07/31 01:13:03;;;;;;;19.48;5.38;;;16.50;99.90;;;;;;4953828;28;20114;-85
2023/07/31 01:15:28;;;;;;;20.63;5.25;;;16.50;99.90;;;;;;4942951;28;20016;-87
2023/07/31 01:17:54;;;;;;;21.63;4.47;;;16.50;99.90;;;;;;4954040;29;20031;-86
2023/07/31 01:20:26;;;;;;;17.90;4.53;;;16.50;99.90;;;;;;4953750;28;20023;-88
2023/07/31 02:25:00;;;;;;;33.25;7.78;;;16.70;99.90;;;;;;5024133;22;20065;-83
2023/07/31 02:27:27;;;;;;;43.60;7.78;;;16.80;99.90;;;;;;4971418;28;20019;-84
2023/07/31 02:29:54;;;;;;;40.30;8.13;;;16.70;99.90;;;;;;4973061;28;20105;-88
2023/07/31 02:32:19;;;;;;;35.97;8.40;;;16.80;99.90;;;;;;4972999;28;20723;-85
2023/07/31 02:34:45;;;;;;;25.67;7.10;;;16.70;99.90;;;;;;4956613;28;20024;-87
2023/07/31 02:37:10;;;;;;;27.73;6.38;;;16.70;99.90;;;;;;4954810;28;20033;-86
2023/07/31 02:39:36;;;;;;;31.70;6.95;;;16.70;99.90;;;;;;4956362;28;20114;-84
2023/07/31 02:42:02;;;;;;;19.05;5.65;;;16.70;99.90;;;;;;4958314;28;20098;-84
2023/07/31 02:44:28;;;;;;;21.48;6.05;;;16.80;99.90;;;;;;4958001;28;20110;-85
2023/07/31 02:46:53;;;;;;;22.33;5.57;;;16.70;99.90;;;;;;4958071;28;20030;-84
2023/07/31 02:49:19;;;;;;;15.93;5.38;;;16.70;99.90;;;;;;4957357;28;20543;-86
2023/07/31 02:51:44;;;;;;;26.98;5.47;;;16.70;99.90;;;;;;4957792;28;20082;-85
2023/07/31 02:54:10;;;;;;;32.38;6.93;;;16.70;99.90;;;;;;4960304;28;20019;-85
2023/07/31 02:56:36;;;;;;;20.80;5.70;;;16.70;99.90;;;;;;4961375;28;20030;-87
2023/07/31 02:59:01;;;;;;;25.77;5.03;;;16.70;99.90;;;;;;4956014;28;20516;-86
2023/07/31 03:01:27;;;;;;;19.23;4.85;;;16.70;99.90;;;;;;4957005;28;20019;-89
2023/07/31 03:03:53;;;;;;;18.77;6.38;;;16.70;99.90;;;;;;4957162;28;20027;-86
2023/07/31 03:06:18;;;;;;;21.02;5.47;;;16.70;99.90;;;;;;4955239;28;20027;-86
2023/07/31 03:08:44;;;;;;;17.20;5.95;;;16.80;99.90;;;;;;4956681;28;20035;-85
2023/07/31 03:11:10;;;;;;;25.58;5.18;;;16.70;99.90;;;;;;4955010;28;20031;-88
2023/07/31 03:13:35;;;;;;;23.23;4.95;;;16.70;99.90;;;;;;4956678;28;20054;-85
2023/07/31 03:16:01;;;;;;;15.15;5.25;;;16.80;99.90;;;;;;4957528;28;20038;-87
2023/07/31 03:18:26;;;;;;;24.00;7.03;;;16.70;99.90;;;;;;4957659;28;20028;-86
2023/07/31 03:20:52;;;;;;;14.55;4.50;;;16.70;99.90;;;;;;4956601;28;20019;-87
2023/07/31 04:22:51;;;;;;;25.45;5.80;;;17.10;99.90;;;;;;6061896;23;20112;-88
2023/07/31 04:25:16;;;;;;;28.60;5.80;;;17.10;99.90;;;;;;4934424;29;20028;-87
2023/07/31 04:27:42;;;;;;;31.13;6.10;;;17.10;99.90;;;;;;4943253;29;20385;-88
2023/07/31 04:30:08;;;;;;;23.80;5.97;;;17.10;99.90;;;;;;4943114;29;20477;-86
2023/07/31 04:32:35;;;;;;;29.90;6.57;;;17.10;99.90;;;;;;4940386;29;20030;-91
2023/07/31 04:35:01;;;;;;;24.25;6.40;;;17.20;99.90;;;;;;4939326;28;20027;-87
2023/07/31 04:37:26;;;;;;;37.42;8.88;;;17.20;99.90;;;;;;4936504;29;20485;-87
2023/07/31 04:39:52;;;;;;;37.13;7.22;;;17.20;99.90;;;;;;4935830;29;20028;-87
2023/07/31 04:42:18;;;;;;;21.77;4.68;;;17.20;99.90;;;;;;4935799;29;20036;-87
2023/07/31 04:44:43;;;;;;;31.90;5.85;;;17.20;99.90;;;;;;4936246;29;20107;-88
2023/07/31 04:47:09;;;;;;;35.55;7.20;;;17.30;99.90;;;;;;4943180;29;20024;-91
2023/07/31 04:49:34;;;;;;;34.63;6.28;;;17.30;99.90;;;;;;4936503;29;20530;-89
2023/07/31 04:52:00;;;;;;;17.30;6.13;;;17.30;99.90;;;;;;4935151;29;20401;-88
2023/07/31 04:54:26;;;;;;;24.08;5.28;;;17.30;99.90;;;;;;4936107;29;20027;-87
2023/07/31 04:56:52;;;;;;;25.90;5.18;;;17.30;99.90;;;;;;4943157;29;20061;-87
2023/07/31 04:59:18;;;;;;;21.27;5.13;;;17.30;99.90;;;;;;4935146;29;20032;-85
2023/07/31 05:01:45;;;;;;;21.67;4.50;;;17.30;99.90;;;;;;4949139;28;20035;-87
2023/07/31 05:04:13;;;;;;;18.20;5.13;;;17.40;99.90;;;;;;4942712;28;20410;-87
2023/07/31 05:06:38;;;;;;;30.48;4.97;;;17.40;99.90;;;;;;4935905;29;20037;-87
2023/07/31 05:09:04;;;;;;;25.65;5.32;;;17.40;99.90;;;;;;4935946;29;20028;-86
2023/07/31 05:11:30;;;;;;;30.10;6.32;;;17.40;99.90;;;;;;4934551;29;20054;-88
2023/07/31 05:13:55;;;;;;;25.48;5.30;;;17.40;99.90;;;;;;4935608;29;20027;-85
2023/07/31 05:16:21;;;;;;;17.17;4.32;;;17.40;99.90;;;;;;4935478;29;20050;-88
2023/07/31 05:18:47;;;;;;;21.45;4.43;;;17.40;99.90;;;;;;4934407;29;20066;-90
2023/07/31 05:21:13;;;;;;;22.08;4.35;;;17.40;99.90;;;;;;4934882;29;20122;-91
2023/07/31 06:23:12;;;;;;;22.85;5.15;;;17.70;99.90;;;;;;5947889;23;19919;-88
2023/07/31 06:25:37;;;;;;;16.02;2.92;;;17.70;99.90;;;;;;4943631;29;20028;-88
2023/07/31 06:28:03;;;;;;;18.45;3.42;;;17.70;99.90;;;;;;4953046;29;20033;-86
2023/07/31 06:30:29;;;;;;;12.00;2.83;;;17.70;99.90;;;;;;4950501;29;20024;-88
2023/07/31 06:32:54;;;;;;;15.27;3.92;;;17.70;99.90;;;;;;4944279;28;20034;-87
2023/07/31 06:35:20;;;;;;;14.05;3.85;;;17.70;99.90;;;;;;4932751;29;20476;-89
2023/07/31 06:37:45;;;;;;;10.20;3.00;;;17.70;99.90;;;;;;4940622;29;20446;-87
2023/07/31 06:40:11;;;;;;;10.35;2.45;;;17.70;99.90;;;;;;4939740;29;20035;-87
2023/07/31 06:42:37;;;;;;;11.07;3.00;;;17.70;99.90;;;;;;4965622;28;20030;-88
2023/07/31 06:45:03;;;;;;;16.60;3.65;;;17.80;99.90;;;;;;4961994;28;20028;-88
2023/07/31 06:47:29;;;;;;;15.15;3.30;;;17.80;99.90;;;;;;4941268;29;20103;-89
2023/07/31 06:49:55;;;;;;;16.13;3.63;;;17.80;99.90;;;;;;4942864;28;20110;-89
2023/07/31 06:52:21;;;;;;;12.50;2.88;;;17.80;99.90;;;;;;4928538;29;20047;-87
2023/07/31 06:55:20;;;;;;;15.77;3.22;;;17.80;99.90;;;;;;4944256;28;20384;-87
2023/07/31 06:57:51;;;;;;;7.68;3.30;;;17.80;99.90;;;;;;4943377;28;20528;-89
2023/07/31 07:00:17;;;;;;;16.48;3.60;;;17.90;99.90;;;;;;4937829;29;20023;-90
2023/07/31 07:02:43;;;;;;;13.43;2.72;;;17.90;99.90;;;;;;4953022;28;20024;-87
2023/07/31 07:05:09;;;;;;;6.43;2.28;;;17.90;99.90;;;;;;4952749;28;20027;-88
2023/07/31 07:07:35;;;;;;;10.57;2.38;;;18.00;99.90;;;;;;4953128;28;20067;-86
2023/07/31 07:10:01;;;;;;;13.10;2.58;;;18.10;99.90;;;;;;4952198;29;20116;-89
2023/07/31 07:12:30;;;;;;;17.30;3.63;;;18.00;99.90;;;;;;4952207;29;20039;-87
2023/07/31 07:14:57;;;;;;;18.15;4.05;;;18.10;99.90;;;;;;4949578;28;20038;-88
2023/07/31 07:17:23;;;;;;;13.23;3.60;;;18.10;99.90;;;;;;4952795;28;20167;-89
2023/07/31 07:19:49;;;;;;;20.65;5.32;;;18.00;99.90;;;;;;4952239;28;20035;-86
2023/07/31 07:22:15;;;;;;;25.33;5.35;;;17.90;99.90;;;;;;4952023;29;20388;-87
2023/07/31 07:24:41;;;;;;;22.58;4.47;;;17.90;99.90;;;;;;4948682;28;20031;-88
2023/07/31 07:27:06;;;;;;;32.35;4.90;;;17.90;99.90;;;;;;4955894;29;20364;-88
2023/07/31 07:29:34;;;;;;;33.55;5.45;;;17.90;99.90;;;;;;4955475;28;20101;-84
2023/07/31 07:31:59;;;;;;;22.17;5.43;;;18.00;99.90;;;;;;4956187;28;20150;-87
2023/07/31 07:34:27;;;;;;;15.05;3.80;;;18.00;99.90;;;;;;4955465;28;20560;-86
2023/07/31 07:36:53;;;;;;;16.42;5.05;;;18.00;99.90;;;;;;4955775;28;20032;-90
2023/07/31 07:39:19;;;;;;;25.75;5.72;;;18.00;99.90;;;;;;4955884;28;20019;-88
2023/07/31 07:41:44;;;;;;;24.05;5.85;;;17.90;99.90;;;;;;4956118;29;20576;-90
2023/07/31 07:44:10;;;;;;;17.50;4.10;;;17.90;99.90;;;;;;4954092;28;20027;-86
2023/07/31 07:46:36;;;;;;;22.55;6.03;;;17.90;99.90;;;;;;4956351;28;20063;-88
2023/07/31 07:49:01;;;;;;;17.60;4.90;;;17.90;99.90;;;;;;4956494;29;20058;-90
2023/07/31 07:51:27;;;;;;;10.82;3.47;;;17.90;99.90;;;;;;4956775;29;20458;-87
2023/07/31 07:53:52;;;;;;;15.82;4.53;;;17.90;99.90;;;;;;4971623;23;20109;-90
2023/07/31 07:56:18;;;;;;;16.77;4.22;;;17.90;99.90;;;;;;4953629;28;20460;-87
2023/07/31 07:58:44;;;;;;;16.48;3.97;;;17.90;99.90;;;;;;4954219;29;20052;-87
2023/07/31 08:01:09;;;;;;;12.50;3.05;;;17.90;99.90;;;;;;4956114;28;20050;-87
2023/07/31 08:03:35;;;;;;;12.95;4.18;;;18.00;99.90;;;;;;4947250;29;20028;-92
2023/07/31 08:06:01;;;;;;;11.90;3.28;;;17.90;99.90;;;;;;4947249;29;20031;-85
2023/07/31 08:08:28;;;;;;;16.63;3.60;;;17.90;99.90;;;;;;4951049;29;20435;-88
2023/07/31 08:10:54;;;;;;;9.85;2.65;;;17.90;99.90;;;;;;4956187;29;20035;-89
2023/07/31 08:13:20;;;;;;;6.40;1.60;;;18.10;99.90;;;;;;4949921;28;20502;-89
2023/07/31 08:15:45;;;;;;;7.85;1.70;;;18.10;99.90;;;;;;4953556;29;20024;-86
2023/07/31 08:18:12;;;;;;;10.02;1.73;;;18.10;99.90;;;;;;4956586;28;20019;-89
2023/07/31 08:20:38;;;;;;;8.77;2.95;;;18.00;99.90;;;;;;4954270;29;20025;-89
2023/07/31 08:23:04;;;;;;;12.68;2.80;;;18.00;99.90;;;;;;4954599;29;20114;-87
2023/07/31 08:25:30;;;;;;;11.30;2.40;;;18.00;99.90;;;;;;4949115;29;20027;-90
2023/07/31 08:27:55;;;;;;;10.98;2.08;;;18.00;99.90;;;;;;4949729;29;20035;-87
2023/07/31 08:30:21;;;;;;;12.30;2.50;;;18.10;99.90;;;;;;4949523;29;20027;-89
2023/07/31 08:32:47;;;;;;;11.52;2.38;;;18.00;99.90;;;;;;4954424;29;20485;-90
2023/07/31 08:35:13;;;;;;;16.00;3.65;;;18.00;99.90;;;;;;4953842;28;20027;-86
2023/07/31 08:37:39;;;;;;;11.57;2.70;;;18.10;99.90;;;;;;4953980;28;20102;-86
2023/07/31 08:40:05;;;;;;;17.50;2.55;;;18.10;99.90;;;;;;4943390;29;20447;-83
2023/07/31 08:42:32;;;;;;;12.77;2.65;;;18.10;99.90;;;;;;4952533;29;20106;-83
2023/07/31 08:45:01;;;;;;;14.27;2.67;;;18.10;99.90;;;;;;4948542;28;20027;-83
2023/07/31 08:47:28;;;;;;;7.45;2.15;;;18.10;99.90;;;;;;4954712;28;20027;-84
2023/07/31 08:49:55;;;;;;;12.27;2.70;;;18.10;99.90;;;;;;4954722;28;20564;-87
2023/07/31 08:52:21;;;;;;;18.02;3.03;;;18.10;99.90;;;;;;4954995;29;20481;-90
2023/07/31 08:54:53;;;;;;;10.77;2.28;;;18.10;99.90;;;;;;4960783;23;20047;-91
2023/07/31 08:57:19;;;;;;;14.65;2.40;;;18.10;99.90;;;;;;4908230;29;20044;-92
2023/07/31 08:59:45;;;;;;;10.35;1.95;;;18.00;99.90;;;;;;4918431;29;20035;-91
2023/07/31 09:02:13;;;;;;;9.88;2.03;;;18.00;99.90;;;;;;4929413;29;20028;-88
2023/07/31 09:04:39;;;;;;;8.38;2.00;;;18.00;99.90;;;;;;4922800;29;20020;-86
2023/07/31 09:07:05;;;;;;;5.70;1.40;;;18.10;99.90;;;;;;4922101;29;20080;-91
2023/07/31 09:09:32;;;;;;;5.22;1.48;;;18.10;99.90;;;;;;4920115;29;20020;-92
2023/07/31 09:11:58;;;;;;;9.55;1.92;;;18.20;99.90;;;;;;4923984;29;20481;-93
2023/07/31 09:14:26;;;;;;;7.43;1.45;;;18.20;99.90;;;;;;4937970;29;20016;-90
2023/07/31 09:16:56;;;;;;;9.13;1.25;;;18.20;99.90;;;;;;4937441;28;20040;-93
2023/07/31 09:19:27;;;;;;;9.05;1.50;;;18.20;99.90;;;;;;4926189;29;20568;-91
2023/07/31 09:21:52;;;;;;;9.50;2.08;;;18.20;99.90;;;;;;4925066;29;20032;-88
2023/07/31 09:24:27;;;;;;;8.30;1.60;;;18.20;99.90;;;;;;4923003;29;20434;-90
2023/07/31 09:26:54;;;;;;;9.88;1.77;;;18.20;99.90;;;;;;4919020;29;20094;-91
2023/07/31 09:29:20;;;;;;;9.10;1.83;;;18.30;99.90;;;;;;4929286;29;20046;-87
2023/07/31 09:31:46;;;;;;;9.77;1.40;;;18.30;99.90;;;;;;4920325;29;20385;-91
2023/07/31 09:34:15;;;;;;;13.27;1.67;;;18.20;99.90;;;;;;4940202;29;20047;-94
2023/07/31 09:36:46;;;;;;;9.35;1.25;;;18.30;99.90;;;;;;4946544;29;20434;-92
2023/07/31 09:39:15;;;;;;;12.35;1.55;;;18.20;99.90;;;;;;4925435;29;20088;-92
2023/07/31 09:41:44;;;;;;;6.10;1.05;;;18.20;99.90;;;;;;4914260;29;20127;-90
2023/07/31 09:44:10;;;;;;;11.88;2.78;;;18.30;99.90;;;;;;4916652;29;20173;-90
2023/07/31 09:46:39;;;;;;;9.45;1.30;;;18.30;99.90;;;;;;4916306;29;20521;-89
2023/07/31 09:49:09;;;;;;;7.57;1.38;;;18.30;99.90;;;;;;4910864;29;20030;-88
2023/07/31 09:51:38;;;;;;;12.02;1.33;;;18.30;99.90;;;;;;4924522;29;20465;-89
2023/07/31 09:54:16;;;;;;;11.23;1.17;;;18.30;99.90;;;;;;4943049;23;20135;-88
2023/07/31 09:56:47;;;;;;;6.75;1.27;;;18.20;99.90;;;;;;4935478;29;20114;-90
2023/07/31 09:59:16;;;;;;;5.57;1.00;;;18.20;99.90;;;;;;4956211;28;20028;-89
2023/07/31 10:01:43;;;;;;;16.30;3.10;;;18.30;99.90;;;;;;4946517;29;20027;-89
2023/07/31 10:04:15;;;;;;;9.65;1.20;;;18.30;99.90;;;;;;4962446;28;20485;-89
2023/07/31 10:06:43;;;;;;;5.82;1.10;;;18.40;99.90;;;;;;4939703;28;20035;-90
2023/07/31 10:09:11;;;;;;;4.10;0.75;;;18.50;99.90;;;;;;4956150;28;20063;-89
2023/07/31 10:11:50;;;;;;;2.97;0.63;;;18.60;99.90;;;;;;4938402;28;20503;-90
2023/07/31 10:14:19;;;;;;;1.55;0.52;;;18.60;99.90;;;;;;4965599;28;20167;-90
2023/07/31 10:16:46;;;;;;;3.40;0.70;;;18.80;99.90;;;;;;4942516;29;20393;-89
2023/07/31 10:19:12;;;;;;;3.50;0.40;;;18.80;99.90;;;;;;4943147;29;20027;-91
2023/07/31 10:21:37;;;;;;;3.80;0.50;;;18.90;99.90;;;;;;4943010;29;20023;-90
2023/07/31 10:24:05;;;;;;;1.30;0.35;;;19.00;99.90;;;;;;4949842;28;20047;-90
2023/07/31 10:26:35;;;;;;;2.20;0.50;;;19.10;99.90;;;;;;4951995;28;20162;-90
2023/07/31 10:29:01;;;;;;;2.28;0.50;;;19.10;99.90;;;;;;4958386;28;20015;-92
2023/07/31 10:31:28;;;;;;;5.38;0.98;;;19.10;99.90;;;;;;4952474;28;20050;-90
2023/07/31 10:33:56;;;;;;;3.15;0.57;;;19.20;99.90;;;;;;4935090;29;20024;-90
2023/07/31 10:36:21;;;;;;;3.80;0.55;;;19.10;99.90;;;;;;4941577;28;20020;-86
2023/07/31 10:38:50;;;;;;;3.80;0.65;;;19.00;99.90;;;;;;4934462;29;20658;-89
2023/07/31 10:41:16;;;;;;;5.63;1.05;;;18.90;99.90;;;;;;4943707;29;20062;-91
2023/07/31 10:43:42;;;;;;;4.25;0.70;;;19.00;99.90;;;;;;4948352;28;20020;-89
2023/07/31 10:46:15;;;;;;;3.63;0.80;;;19.00;99.90;;;;;;4938263;29;20023;-88
2023/07/31 10:48:41;;;;;;;3.92;1.20;;;19.00;99.90;;;;;;4936804;29;20024;-87
2023/07/31 10:51:15;;;;;;;4.03;0.80;;;19.00;99.90;;;;;;4936179;29;20035;-86
2023/07/31 10:53:42;;;;;;;0.75;0.60;;;18.90;99.90;;;;;;5009202;22;20021;-89
2023/07/31 10:56:09;;;;;;;4.68;1.00;;;18.80;99.90;;;;;;4972442;28;20549;-89
2023/07/31 10:58:36;;;;;;;4.35;0.75;;;18.80;99.90;;;;;;4976560;28;20027;-91
2023/07/31 11:01:04;;;;;;;3.80;0.75;;;18.80;99.90;;;;;;4982560;28;20468;-92
2023/07/31 11:03:52;;;;;;;4.05;0.60;;;18.80;99.90;;;;;;4988138;28;20113;-87
2023/07/31 11:06:18;;;;;;;1.25;0.60;;;18.80;99.90;;;;;;4983219;28;20038;-90
2023/07/31 11:08:48;;;;;;;1.45;0.50;;;18.80;99.90;;;;;;4984945;28;20504;-92
2023/07/31 11:11:15;;;;;;;6.50;1.08;;;18.80;99.90;;;;;;4980008;28;20030;-90
2023/07/31 11:13:54;;;;;;;6.22;0.77;;;18.80;99.90;;;;;;4991373;28;20539;-92
2023/07/31 11:16:25;;;;;;;3.13;0.60;;;18.70;99.90;;;;;;4980457;28;20023;-91
2023/07/31 11:18:53;;;;;;;3.50;0.82;;;18.60;99.90;;;;;;4974527;28;20095;-92
2023/07/31 11:21:24;;;;;;;2.65;0.60;;;18.50;99.90;;;;;;4976880;28;20015;-93
2023/07/31 11:23:52;;;;;;;3.10;1.35;;;18.40;99.90;;;;;;4985358;28;20081;-90
2023/07/31 11:26:18;;;;;;;3.10;0.70;;;18.50;99.90;;;;;;4977544;28;20025;-92
2023/07/31 11:28:47;;;;;;;1.17;0.55;;;18.50;99.90;;;;;;4981344;28;20027;-91
2023/07/31 11:31:13;;;;;;;0.93;0.40;;;18.70;99.90;;;;;;4991613;28;20031;-90
2023/07/31 11:33:38;;;;;;;2.88;0.68;;;18.70;99.90;;;;;;4975070;28;20027;-90
2023/07/31 11:36:04;;;;;;;3.38;1.13;;;18.90;99.90;;;;;;4977047;28;20031;-90
2023/07/31 11:38:31;;;;;;;3.63;0.82;;;19.00;99.90;;;;;;4977213;28;20026;-91
2023/07/31 11:40:59;;;;;;;5.40;1.20;;;19.10;99.90;;;;;;4991735;28;20092;-89
2023/07/31 11:43:26;;;;;;;9.18;1.42;;;18.90;99.90;;;;;;5000608;28;20023;-91
2023/07/31 11:45:56;;;;;;;7.40;1.40;;;18.80;99.90;;;;;;4990481;28;20097;-87
2023/07/31 11:48:29;;;;;;;6.65;1.70;;;18.70;99.90;;;;;;4972862;28;20022;-87
2023/07/31 11:51:03;;;;;;;4.13;1.10;;;18.60;99.90;;;;;;4976450;28;21171;-88
2023/07/31 11:53:43;;;;;;;8.65;1.45;;;18.50;99.90;;;;;;5016463;23;19999;-86
2023/07/31 11:56:12;;;;;;;11.73;1.63;;;18.50;99.90;;;;;;4962177;28;20027;-88
2023/07/31 11:58:39;;;;;;;8.93;1.90;;;18.40;99.90;;;;;;4967931;28;20030;-90
2023/07/31 12:01:06;;;;;;;7.03;1.58;;;18.40;99.90;;;;;;4967752;28;20031;-92
2023/07/31 12:03:32;;;;;;;6.10;1.13;;;18.30;99.90;;;;;;4962377;28;20435;-88
2023/07/31 12:05:59;;;;;;;8.95;2.00;;;18.30;99.90;;;;;;4937802;29;20080;-87
2023/07/31 12:08:25;;;;;;;1.95;1.13;;;18.40;99.90;;;;;;4943126;29;20028;-85
2023/07/31 12:11:01;;;;;;;7.72;1.83;;;18.30;99.90;;;;;;4942684;28;20118;-86
2023/07/31 12:13:27;;;;;;;5.63;1.77;;;18.40;99.90;;;;;;4943596;29;20031;-86
2023/07/31 12:15:57;;;;;;;3.88;1.08;;;18.50;99.90;;;;;;4938175;29;20019;-90
2023/07/31 12:18:25;;;;;;;5.80;1.27;;;18.60;99.90;;;;;;4941514;29;20024;-89
2023/07/31 12:20:59;;;;;;;6.45;1.40;;;18.70;99.90;;;;;;4936345;29;20111;-87
2023/07/31 12:23:29;;;;;;;8.55;1.30;;;18.80;99.90;;;;;;4941000;29;20027;-89
2023/07/31 12:26:12;;;;;;;3.22;1.10;;;18.90;99.90;;;;;;4934405;29;20048;-91
2023/07/31 12:28:45;;;;;;;5.85;1.33;;;18.90;99.90;;;;;;4936888;29;20032;-88
2023/07/31 12:31:22;;;;;;;4.82;1.63;;;18.80;99.90;;;;;;4950077;29;20058;-90
2023/07/31 12:33:50;;;;;;;4.05;1.00;;;18.70;99.90;;;;;;4937329;29;20102;-91
2023/07/31 12:36:24;;;;;;;5.82;1.33;;;18.60;99.90;;;;;;4937229;29;20020;-92
2023/07/31 12:38:51;;;;;;;2.17;1.00;;;18.60;99.90;;;;;;4934842;29;20111;-89
2023/07/31 12:41:17;;;;;;;1.88;0.90;;;18.60;99.90;;;;;;4939313;29;20059;-90
2023/07/31 12:43:45;;;;;;;4.43;1.13;;;18.60;99.90;;;;;;4932804;29;20034;-91
2023/07/31 12:46:11;;;;;;;4.22;1.15;;;18.80;99.90;;;;;;4945687;29;20034;-90
2023/07/31 12:48:38;;;;;;;5.35;1.00;;;18.90;99.90;;;;;;4936536;29;20026;-88
2023/07/31 12:51:07;;;;;;;4.07;0.93;;;18.90;99.90;;;;;;4930791;29;20465;-87
2023/07/31 12:53:33;;;;;;;5.28;0.77;;;19.00;99.90;;;;;;4979235;23;20020;-89
2023/07/31 12:55:59;;;;;;;6.10;1.60;;;18.90;99.90;;;;;;4962417;28;20043;-90
2023/07/31 12:58:25;;;;;;;4.47;0.90;;;18.90;99.90;;;;;;4963804;28;20475;-92
2023/07/31 13:00:51;;;;;;;10.40;1.63;;;18.80;99.90;;;;;;4974059;28;20096;-91
2023/07/31 13:03:16;;;;;;;5.20;1.38;;;18.70;99.90;;;;;;4967573;28;20101;-92
2023/07/31 13:05:42;;;;;;;6.63;1.50;;;18.80;99.90;;;;;;4967030;28;20023;-91
2023/07/31 13:08:08;;;;;;;8.80;2.08;;;18.80;99.90;;;;;;4961978;28;20233;-88
2023/07/31 13:10:33;;;;;;;4.97;1.15;;;18.80;99.90;;;;;;4958982;28;20389;-90
2023/07/31 13:12:59;;;;;;;4.70;1.45;;;18.90;99.90;;;;;;4968479;28;20047;-88
2023/07/31 13:15:25;;;;;;;7.60;1.45;;;18.90;99.90;;;;;;4961709;28;20039;-89
2023/07/31 13:17:50;;;;;;;6.22;1.40;;;19.00;99.90;;;;;;4963558;28;20031;-87
2023/07/31 13:20:16;;;;;;;4.18;1.30;;;19.00;99.90;;;;;;4959645;28;20019;-90
2023/07/31 13:22:42;;;;;;;8.85;1.92;;;19.10;99.90;;;;;;4959624;28;20082;-86
2023/07/31 13:25:08;;;;;;;6.03;1.17;;;19.00;99.90;;;;;;4961542;28;20138;-89
2023/07/31 13:27:35;;;;;;;8.40;1.30;;;19.00;99.90;;;;;;4953385;28;20023;-87
2023/07/31 13:30:00;;;;;;;9.15;2.05;;;18.90;99.90;;;;;;4961688;28;20031;-92
2023/07/31 13:32:26;;;;;;;7.93;1.35;;;18.90;99.90;;;;;;4970851;28;20377;-91
2023/07/31 13:34:51;;;;;;;7.35;1.35;;;18.90;99.90;;;;;;4965166;28;20494;-90
2023/07/31 13:37:17;;;;;;;6.43;1.67;;;18.90;99.90;;;;;;4953745;28;20023;-88
2023/07/31 13:39:43;;;;;;;6.32;1.40;;;18.90;99.90;;;;;;4968906;28;20050;-94
2023/07/31 13:42:11;;;;;;;6.70;1.80;;;18.90;99.90;;;;;;4964694;28;20035;-91
2023/07/31 13:44:41;;;;;;;11.15;2.33;;;18.80;99.90;;;;;;4976227;28;20026;-91
2023/07/31 13:47:08;;;;;;;5.93;1.27;;;18.90;99.90;;;;;;4964851;28;20023;-91
2023/07/31 13:49:34;;;;;;;7.10;1.95;;;19.00;99.90;;;;;;4965825;28;20094;-92
2023/07/31 13:52:00;;;;;;;4.50;1.73;;;19.10;99.90;;;;;;5233696;22;20073;-92
2023/07/31 13:54:26;;;;;;;6.25;1.30;;;19.10;99.90;;;;;;5178461;23;20046;-90
2023/07/31 13:56:52;;;;;;;2.92;1.20;;;19.00;99.90;;;;;;4978359;28;20030;-94
2023/07/31 13:59:18;;;;;;;7.95;1.83;;;18.90;99.90;;;;;;4988590;28;20018;-91
2023/07/31 14:01:44;;;;;;;7.32;1.40;;;18.90;99.90;;;;;;4984985;28;20094;-91
2023/07/31 14:04:10;;;;;;;7.75;1.65;;;18.90;99.90;;;;;;4983368;28;20490;-91
2023/07/31 14:06:36;;;;;;;12.27;2.28;;;18.70;99.90;;;;;;4989252;28;20026;-92
2023/07/31 14:09:02;;;;;;;6.95;1.85;;;18.70;99.90;;;;;;4976716;28;20056;-89
2023/07/31 14:11:28;;;;;;;10.75;2.47;;;18.60;99.90;;;;;;4976309;28;20133;-90
2023/07/31 14:13:56;;;;;;;5.75;2.10;;;18.60;99.90;;;;;;4978043;28;20054;-90
2023/07/31 14:16:22;;;;;;;5.30;1.90;;;18.70;99.90;;;;;;4999611;28;20053;-91
2023/07/31 14:18:47;;;;;;;5.60;1.75;;;18.80;99.90;;;;;;4985143;28;20019;-89
2023/07/31 14:21:13;;;;;;;6.68;2.50;;;18.80;99.90;;;;;;4988515;28;20049;-91
2023/07/31 14:23:40;;;;;;;8.60;1.90;;;18.70;99.90;;;;;;4981793;28;20058;-91
2023/07/31 14:26:07;;;;;;;6.35;2.08;;;18.60;99.90;;;;;;4974245;28;20030;-93
2023/07/31 14:28:33;;;;;;;4.78;2.33;;;18.40;99.90;;;;;;4975846;28;20023;-91
2023/07/31 14:30:59;;;;;;;3.90;2.05;;;18.40;99.90;;;;;;4981005;28;20026;-89
2023/07/31 14:33:25;;;;;;;9.30;2.30;;;18.30;99.90;;;;;;4971314;28;20039;-91
2023/07/31 14:35:50;;;;;;;7.30;2.13;;;18.30;99.90;;;;;;4974335;28;20816;-88
2023/07/31 14:38:16;;;;;;;5.68;2.05;;;18.20;99.90;;;;;;4966528;28;20098;-88
2023/07/31 14:40:42;;;;;;;6.05;2.00;;;18.20;99.90;;;;;;4967646;28;20081;-91
2023/07/31 14:43:07;;;;;;;8.50;2.38;;;18.20;99.90;;;;;;4983086;28;20038;-92
2023/07/31 14:45:34;;;;;;;4.75;2.50;;;18.20;99.90;;;;;;4986233;28;20050;-93
2023/07/31 14:48:00;;;;;;;9.05;2.60;;;18.10;99.90;;;;;;4992451;28;20378;-91
2023/07/31 14:50:26;;;;;;;7.80;2.10;;;18.10;99.90;;;;;;4973581;28;20022;-88
2023/07/31 14:52:52;;;;;;;10.48;2.33;;;18.00;99.90;;;;;;4990870;28;20038;-92
2023/07/31 14:55:21;;;;;;;12.55;2.45;;;17.90;99.90;;;;;;5003585;23;20879;-94
2023/07/31 14:57:46;;;;;;;10.73;2.45;;;17.90;99.90;;;;;;5000030;28;20054;-94
2023/07/31 15:00:12;;;;;;;13.15;2.55;;;17.80;99.90;;;;;;5006812;28;20119;-93
2023/07/31 15:02:38;;;;;;;8.27;2.35;;;17.70;99.90;;;;;;5001684;28;20509;-88
2023/07/31 15:05:05;;;;;;;8.90;2.67;;;17.70;99.90;;;;;;4982339;28;20039;-91
2023/07/31 15:07:31;;;;;;;6.28;1.73;;;17.70;99.90;;;;;;4972081;28;20502;-90
2023/07/31 15:09:57;;;;;;;9.13;1.98;;;17.70;99.90;;;;;;4972499;28;20030;-91
2023/07/31 15:12:23;;;;;;;7.40;1.88;;;17.60;99.90;;;;;;4983748;28;20050;-89
2023/07/31 15:14:49;;;;;;;8.20;2.22;;;17.50;99.90;;;;;;4972482;28;20415;-92
2023/07/31 15:17:15;;;;;;;7.50;2.03;;;17.50;99.90;;;;;;4979118;28;20022;-91
2023/07/31 15:19:41;;;;;;;6.80;2.10;;;17.70;99.90;;;;;;4977961;28;20034;-92
2023/07/31 15:22:07;;;;;;;8.48;2.10;;;17.80;99.90;;;;;;4977061;28;20031;-91
2023/07/31 15:24:33;;;;;;;8.40;2.22;;;17.80;99.90;;;;;;4980517;28;20678;-92
2023/07/31 15:27:01;;;;;;;12.93;3.08;;;17.80;99.90;;;;;;4981136;28;20512;-88
2023/07/31 15:29:27;;;;;;;8.98;3.22;;;17.80;99.90;;;;;;4968482;28;20353;-89
2023/07/31 15:31:53;;;;;;;13.85;3.17;;;17.90;99.90;;;;;;4983216;28;20488;-91
2023/07/31 15:34:19;;;;;;;11.38;2.83;;;18.00;99.90;;;;;;4984372;28;20090;-90
2023/07/31 15:36:45;;;;;;;19.77;3.33;;;18.10;99.90;;;;;;4973477;28;20030;-89
2023/07/31 15:39:10;;;;;;;12.00;3.08;;;18.10;99.90;;;;;;4985989;28;20026;-90
2023/07/31 15:41:40;;;;;;;14.45;2.75;;;18.20;99.90;;;;;;4972641;28;21330;-90
2023/07/31 15:44:06;;;;;;;14.52;3.03;;;18.20;99.90;;;;;;4971319;28;20479;-89
2023/07/31 15:46:32;;;;;;;11.40;2.83;;;18.20;99.90;;;;;;4978667;28;20118;-91
2023/07/31 15:48:58;;;;;;;19.08;3.80;;;18.30;99.90;;;;;;4969407;28;20434;-89
2023/07/31 15:51:27;;;;;;;17.08;3.10;;;18.40;99.90;;;;;;4980723;28;20037;-90
2023/07/31 15:53:53;;;;;;;9.73;2.58;;;18.40;99.90;;;;;;4964814;28;20065;-89
2023/07/31 15:56:21;;;;;;;12.20;2.67;;;18.30;99.90;;;;;;4963696;28;20596;-91
2023/07/31 15:58:47;;;;;;;5.53;2.15;;;18.20;99.90;;;;;;4961843;28;20142;-90
2023/07/31 16:01:12;;;;;;;21.48;8.52;;;18.20;99.90;;;;;;4965072;28;20110;-89
2023/07/31 16:03:38;;;;;;;5.90;1.98;;;18.10;99.90;;;;;;4965253;28;20510;-91